Time;durP1;ratioP1;P1;durP2;ratioP2;P2;SDS_P1;SDS_P2;PMS_P1;PMS_P2;Temp;Humidity;BMP_temperature;BMP_pressure;BME280_temperature;BME280_humidity;BME280_pressure;Samples;Min_cycle;Max_cycle;Signal;HPM_P1;HPM_P2
2022/11/05 08:24:58;;;;;;;10.25;7.20;;;;;;;;;;12951653;22;20531;-83
2022/11/05 08:30:07;;;;;;;13.00;7.20;;;;;;;;;;12801661;22;1541185;-83
2022/11/05 08:35:19;;;;;;;9.70;7.90;;;;;;;;;;12818090;23;20001;-83
2022/11/05 08:40:23;;;;;;;13.77;10.75;;;;;;;;;;12817510;23;20017;-82
2022/11/05 08:45:25;;;;;;;12.25;9.15;;;;;;;;;;12792705;23;20012;-83
2022/11/05 08:50:26;;;;;;;12.68;10.18;;;;;;;;;;12820386;23;20445;-84
2022/11/05 08:55:27;;;;;;;13.52;9.90;;;;;;;;;;12819757;23;20031;-83
2022/11/05 09:00:39;;;;;;;12.68;9.63;;;;;;;;;;12795355;23;20084;-83
2022/11/05 09:06:19;;;;;;;13.00;8.73;;;;;;;;;;12817176;23;20088;-83
2022/11/05 09:11:28;;;;;;;10.55;7.75;;;;;;;;;;12815575;23;20005;-83
2022/11/05 09:16:31;;;;;;;10.57;6.82;;;;;;;;;;12815236;23;20088;-83
2022/11/05 09:21:33;;;;;;;8.82;6.80;;;;;;;;;;12816528;23;20425;-82
2022/11/05 09:26:40;;;;;;;9.57;6.72;;;;;;;;;;12814292;23;20456;-83
2022/11/05 09:32:03;;;;;;;12.20;10.18;;;;;;;;;;12808541;23;20009;-84
2022/11/05 09:37:04;;;;;;;6.93;5.25;;;;;;;;;;12813377;23;20013;-82
2022/11/05 09:42:13;;;;;;;9.73;6.20;;;;;;;;;;12817908;23;20017;-83
2022/11/05 09:47:30;;;;;;;;;;;;;;;;;;;;;
2022/11/05 09:52:43;;;;;;;6.10;5.10;;;;;;;;;;12814711;23;19997;-82
2022/11/05 09:58:02;;;;;;;7.25;5.07;;;;;;;;;;12808777;23;20071;-84
2022/11/05 10:03:11;;;;;;;8.57;5.80;;;;;;;;;;12821400;23;20028;-83
2022/11/05 10:08:47;;;;;;;8.52;5.45;;;;;;;;;;12879329;23;20007;-84
2022/11/05 10:14:25;;;;;;;7.65;4.78;;;;;;;;;;12877783;23;20060;-84
2022/11/05 10:20:22;;;;;;;5.95;4.10;;;;;;;;;;12881731;23;20043;-83
2022/11/05 10:25:32;;;;;;;4.82;3.75;;;;;;;;;;12872102;23;20407;-84
2022/11/05 10:30:58;;;;;;;5.93;3.83;;;;;;;;;;12877293;23;20005;-83
2022/11/05 10:36:05;;;;;;;5.63;3.40;;;;;;;;;;12885921;23;20008;-81
2022/11/05 10:41:26;;;;;;;8.35;4.20;;;;;;;;;;12885783;23;20013;-83
2022/11/05 10:46:27;;;;;;;;;;;;;;;;;;12874135;23;20008;-83
2022/11/05 10:51:28;;;;;;;7.18;3.97;;;;;;;;;;12874093;23;19899;-83
2022/11/05 10:56:49;;;;;;;8.85;3.90;;;;;;;;;;12874707;23;20008;-84
2022/11/05 11:01:59;;;;;;;8.55;3.72;;;;;;;;;;12865804;23;20008;-83
2022/11/05 11:07:01;;;;;;;5.68;3.72;;;;;;;;;;12870316;23;20008;-82
2022/11/05 11:12:19;;;;;;;6.95;3.40;;;;;;;;;;12846652;23;20355;-84
2022/11/05 11:17:28;;;;;;;8.30;4.07;;;;;;;;;;12871117;23;20429;-83
2022/11/05 11:22:36;;;;;;;7.38;4.68;;;;;;;;;;12859482;23;20021;-83
2022/11/05 11:27:37;;;;;;;8.10;4.25;;;;;;;;;;12872060;23;20076;-83
2022/11/05 11:32:43;;;;;;;5.38;3.00;;;;;;;;;;12873641;23;20011;-83
2022/11/05 11:37:55;;;;;;;5.47;3.33;;;;;;;;;;12873730;23;20011;-84
2022/11/05 11:43:04;;;;;;;8.23;3.88;;;;;;;;;;12876733;23;20080;-84
2022/11/05 11:48:06;;;;;;;4.78;3.38;;;;;;;;;;12875980;23;20007;-84
2022/11/05 11:53:16;;;;;;;6.85;3.42;;;;;;;;;;12874407;23;20039;-83
2022/11/05 11:58:17;;;;;;;6.40;3.43;;;;;;;;;;12878453;23;20064;-83
2022/11/05 12:03:24;;;;;;;6.95;3.50;;;;;;;;;;12875758;23;20241;-83
2022/11/05 12:08:40;;;;;;;4.10;2.90;;;;;;;;;;12875062;23;20072;-85
2022/11/05 12:13:44;;;;;;;7.03;4.35;;;;;;;;;;12879150;23;20028;-84
2022/11/05 12:18:57;;;;;;;7.38;3.45;;;;;;;;;;12879349;23;20036;-85
2022/11/05 12:24:05;;;;;;;5.20;2.83;;;;;;;;;;12889309;23;20013;-84
2022/11/05 12:29:21;;;;;;;7.93;3.65;;;;;;;;;;12879283;23;20076;-85
2022/11/05 12:34:41;;;;;;;6.22;3.30;;;;;;;;;;12878496;23;20008;-83
2022/11/05 12:39:43;;;;;;;5.68;3.47;;;;;;;;;;12878009;23;20066;-83
2022/11/05 12:44:57;;;;;;;6.40;3.45;;;;;;;;;;12879630;23;20032;-84
2022/11/05 12:50:17;;;;;;;5.03;2.30;;;;;;;;;;12877101;23;20001;-84
2022/11/05 12:55:19;;;;;;;4.57;2.78;;;;;;;;;;12874556;23;20009;-86
2022/11/05 13:00:37;;;;;;;5.78;3.25;;;;;;;;;;12886868;23;20015;-85
2022/11/05 13:05:57;;;;;;;4.50;3.00;;;;;;;;;;12882791;23;20015;-85
2022/11/05 13:11:06;;;;;;;6.23;3.43;;;;;;;;;;12882054;23;20001;-85
2022/11/05 13:16:13;;;;;;;6.43;3.10;;;;;;;;;;12878527;23;20111;-84
2022/11/05 13:21:15;;;;;;;5.35;3.50;;;;;;;;;;12880604;23;20005;-85
2022/11/05 13:26:19;;;;;;;4.53;2.60;;;;;;;;;;12879229;23;19997;-85
2022/11/05 13:31:23;;;;;;;3.83;2.38;;;;;;;;;;12875712;23;20013;-85
2022/11/05 13:42:27;;;;;;;5.07;2.47;;;;;;;;;;12880423;23;20072;-86
2022/11/05 13:47:44;;;;;;;5.43;2.88;;;;;;;;;;12705809;23;20024;-85
2022/11/05 13:52:59;;;;;;;3.60;2.17;;;;;;;;;;12912231;23;20001;-85
2022/11/05 13:58:19;;;;;;;5.85;3.03;;;;;;;;;;12915619;23;20005;-86
2022/11/05 14:03:20;;;;;;;6.03;3.05;;;;;;;;;;12890688;23;20083;-85
2022/11/05 14:08:25;;;;;;;3.67;2.50;;;;;;;;;;12876149;23;20024;-86
2022/11/05 14:13:34;;;;;;;5.53;2.70;;;;;;;;;;12875216;23;20337;-86
2022/11/05 14:18:38;;;;;;;5.18;2.50;;;;;;;;;;12879259;23;20012;-86
2022/11/05 14:23:40;;;;;;;3.88;2.22;;;;;;;;;;12882378;23;20013;-86
2022/11/05 14:28:43;;;;;;;3.03;2.10;;;;;;;;;;12883107;23;20056;-84
2022/11/05 14:34:13;;;;;;;3.97;1.98;;;;;;;;;;12895294;23;20012;-84
2022/11/05 14:39:18;;;;;;;3.33;2.13;;;;;;;;;;12769928;23;20015;-84
2022/11/05 14:44:19;;;;;;;4.88;2.30;;;;;;;;;;12898654;23;20008;-84
2022/11/05 14:49:22;;;;;;;5.53;2.53;;;;;;;;;;12891645;23;20012;-86
2022/11/05 14:54:31;;;;;;;4.50;2.35;;;;;;;;;;12881323;23;20060;-84
2022/11/05 14:59:52;;;;;;;4.65;2.30;;;;;;;;;;12892456;23;20032;-84
2022/11/05 15:05:13;;;;;;;2.60;1.80;;;;;;;;;;12887212;23;20013;-87
2022/11/05 15:10:14;;;;;;;;;;;;;;;;;;12903035;23;20003;-86
2022/11/05 15:15:15;;;;;;;5.10;2.40;;;;;;;;;;12913962;23;19911;-87
2022/11/05 15:20:17;;;;;;;4.88;3.47;;;;;;;;;;12905787;23;20016;-86
2022/11/05 15:25:24;;;;;;;5.35;2.90;;;;;;;;;;12880746;23;20005;-87
2022/11/05 15:30:25;;;;;;;3.95;2.38;;;;;;;;;;12876446;23;20000;-87
2022/11/05 15:35:27;;;;;;;5.53;2.42;;;;;;;;;;12878657;23;20012;-86
2022/11/05 15:40:32;;;;;;;4.63;2.22;;;;;;;;;;12875803;23;20001;-87
2022/11/05 15:45:33;;;;;;;3.50;2.08;;;;;;;;;;12877563;23;20063;-87
2022/11/05 15:50:34;;;;;;;2.97;1.92;;;;;;;;;;12874464;23;20012;-87
2022/11/05 15:55:35;;;;;;;4.20;2.20;;;;;;;;;;12873739;23;20093;-86
2022/11/05 16:00:36;;;;;;;5.32;3.58;;;;;;;;;;12874019;23;20032;-87
2022/11/05 16:05:41;;;;;;;4.80;2.08;;;;;;;;;;12876237;23;20020;-87
2022/11/05 16:10:45;;;;;;;3.72;2.00;;;;;;;;;;12875367;23;20457;-87
2022/11/05 16:15:54;;;;;;;2.17;1.60;;;;;;;;;;12877531;23;20005;-87
2022/11/05 16:20:59;;;;;;;2.95;1.80;;;;;;;;;;12872223;23;20036;-87
2022/11/05 16:26:00;;;;;;;4.03;2.72;;;;;;;;;;12878006;23;20028;-87
2022/11/05 16:31:03;;;;;;;4.45;2.33;;;;;;;;;;12873545;23;20008;-86
2022/11/05 16:36:04;;;;;;;4.60;2.30;;;;;;;;;;12883210;23;20012;-85
2022/11/05 16:41:05;;;;;;;3.25;1.73;;;;;;;;;;12881704;23;20084;-86
2022/11/05 16:46:10;;;;;;;4.43;2.72;;;;;;;;;;12879376;23;20015;-86
2022/11/05 16:51:12;;;;;;;2.67;1.70;;;;;;;;;;12876630;23;20080;-86
2022/11/05 16:56:17;;;;;;;4.57;2.25;;;;;;;;;;12877260;23;20012;-86
2022/11/05 17:01:19;;;;;;;3.35;1.90;;;;;;;;;;12873495;23;20496;-86
2022/11/05 17:06:21;;;;;;;6.43;3.45;;;;;;;;;;12875313;23;20425;-85
2022/11/05 17:11:22;;;;;;;4.60;2.85;;;;;;;;;;12873588;23;20044;-86
2022/11/05 17:16:25;;;;;;;4.00;2.55;;;;;;;;;;12872583;23;20437;-86
2022/11/05 17:21:27;;;;;;;3.97;2.10;;;;;;;;;;12874868;23;20032;-85
2022/11/05 17:26:28;;;;;;;5.40;2.65;;;;;;;;;;12876491;23;20014;-87
2022/11/05 17:31:29;;;;;;;3.60;2.28;;;;;;;;;;12876765;23;20055;-87
2022/11/05 17:36:30;;;;;;;4.18;2.25;;;;;;;;;;12874106;23;20039;-86
2022/11/05 17:41:31;;;;;;;4.25;2.22;;;;;;;;;;12883223;23;20009;-87
2022/11/05 17:46:32;;;;;;;5.53;2.28;;;;;;;;;;12887488;23;20009;-86
2022/11/05 17:51:33;;;;;;;2.38;1.65;;;;;;;;;;12880159;23;20011;-87
2022/11/05 17:56:35;;;;;;;3.08;2.05;;;;;;;;;;12880621;23;20008;-86
2022/11/05 18:01:41;;;;;;;4.35;1.70;;;;;;;;;;12885234;23;20077;-86
2022/11/05 18:06:42;;;;;;;3.53;2.47;;;;;;;;;;12878618;23;20009;-87
2022/11/05 18:11:43;;;;;;;;;;;;;;;;;;12878636;23;20008;-85
2022/11/05 18:16:44;;;;;;;4.43;1.80;;;;;;;;;;12875140;23;19906;-85
2022/11/05 18:21:45;;;;;;;4.22;2.03;;;;;;;;;;12876458;23;20004;-85
2022/11/05 18:26:46;;;;;;;;;;;;;;;;;;12876743;23;20108;-85
2022/11/05 18:31:47;;;;;;;3.47;1.95;;;;;;;;;;12875104;23;19931;-86
2022/11/05 18:36:48;;;;;;;;;;;;;;;;;;12875852;23;20000;-86
2022/11/05 18:41:49;;;;;;;2.60;1.98;;;;;;;;;;12875170;23;19943;-85
2022/11/05 18:46:51;;;;;;;5.40;2.15;;;;;;;;;;12875730;23;20005;-85
2022/11/05 18:51:52;;;;;;;3.33;1.60;;;;;;;;;;12872750;23;20000;-85
2022/11/05 18:56:52;;;;;;;;;;;;;;;;;;12876746;23;20005;-85
2022/11/05 19:01:53;;;;;;;4.85;2.70;;;;;;;;;;12872238;23;20593;-85
2022/11/05 19:06:54;;;;;;;;;;;;;;;;;;12870747;23;20083;-84
2022/11/05 19:11:56;;;;;;;4.93;1.85;;;;;;;;;;12870941;23;19990;-84
2022/11/05 19:16:57;;;;;;;3.70;1.90;;;;;;;;;;12871627;23;20007;-85
2022/11/05 19:21:58;;;;;;;5.72;2.75;;;;;;;;;;12869555;23;20071;-84
2022/11/05 19:26:59;;;;;;;4.45;3.00;;;;;;;;;;12872105;23;20012;-85
2022/11/05 19:32:00;;;;;;;;;;;;;;;;;;12903400;23;20073;-84
2022/11/05 19:37:01;;;;;;;3.85;2.30;;;;;;;;;;12914053;23;19896;-84
2022/11/05 19:42:02;;;;;;;3.25;2.08;;;;;;;;;;12899250;23;20009;-85
2022/11/05 19:47:03;;;;;;;3.80;2.45;;;;;;;;;;12876630;23;20004;-85
2022/11/05 19:52:05;;;;;;;;;;;;;;;;;;12876261;23;20040;-85
2022/11/05 19:57:06;;;;;;;3.33;2.20;;;;;;;;;;12878169;23;19903;-85
2022/11/05 20:02:07;;;;;;;;;;;;;;;;;;12877613;23;20028;-85
2022/11/05 20:07:08;;;;;;;6.15;3.40;;;;;;;;;;12879250;23;19952;-85
2022/11/05 20:12:09;;;;;;;;;;;;;;;;;;12881020;23;20087;-86
2022/11/05 20:17:10;;;;;;;3.25;2.20;;;;;;;;;;12880134;23;19916;-86
2022/11/05 20:22:11;;;;;;;;;;;;;;;;;;12880372;23;20059;-86
